Terminal Aerodrome Forecast
Issued by NWS

Home | Current Version | Previous Version | Text Only | Print | Product List | Glossary Off
Versions: 1 2 3 4 5 6 7 8 9 10 11 12 13 14 15

000
FTUS43 KMPX 220520
TAFRWF
TAF
KRWF 220520Z 2206/2306 31012KT P6SM SKC
     FM221200 31013G20KT P6SM SKC
     FM221400 31019G27KT P6SM FEW050 FEW250
     FM230100 32009KT P6SM FEW250=

USA.gov is the U.S. government's official web portal to all federal, state and local government web resources and services.